Time;durP1;ratioP1;P1;durP2;ratioP2;P2;SDS_P1;SDS_P2;PMS_P1;PMS_P2;Temp;Humidity;BMP_temperature;BMP_pressure;BME280_temperature;BME280_humidity;BME280_pressure;Samples;Min_cycle;Max_cycle;Signal;HPM_P1;HPM_P2
2024/03/03 00:01:24;;;;;;;29.60;23.00;;;;;;;11.09;100.00;99435.11;182253;1239;46062;-83
2024/03/03 00:05:26;;;;;;;33.50;23.70;;;;;;;11.11;100.00;99434.84;182313;1235;59942;-85
2024/03/03 00:09:27;;;;;;;33.40;23.10;;;;;;;11.10;100.00;99433.23;182898;1238;46088;-85
2024/03/03 00:13:31;;;;;;;28.60;21.80;;;;;;;11.07;100.00;99428.60;182427;1235;45931;-85
2024/03/03 00:17:33;;;;;;;28.80;22.20;;;;;;;11.04;100.00;99425.31;182249;1238;46110;-84
2024/03/03 00:21:35;;;;;;;32.60;23.90;;;;;;;11.02;100.00;99426.52;183294;1237;44066;-86
2024/03/03 00:25:37;;;;;;;25.90;21.50;;;;;;;10.98;100.00;99422.31;182563;1239;59417;-85
2024/03/03 00:29:38;;;;;;;32.80;23.60;;;;;;;10.93;100.00;99418.88;182408;1239;45866;-85
2024/03/03 00:33:42;;;;;;;36.60;24.30;;;;;;;10.90;100.00;99417.19;182183;1235;46075;-85
2024/03/03 00:37:44;;;;;;;31.90;22.10;;;;;;;10.90;100.00;99411.39;182253;1235;46163;-83
2024/03/03 00:41:46;;;;;;;36.20;25.20;;;;;;;10.88;100.00;99409.61;183033;1235;44089;-83
2024/03/03 00:45:48;;;;;;;33.70;25.20;;;;;;;10.91;100.00;99406.71;182721;1234;57978;-83
2024/03/03 00:49:50;;;;;;;32.30;23.10;;;;;;;10.85;100.00;99405.30;182351;1239;45877;-84
2024/03/03 00:53:52;;;;;;;31.50;24.70;;;;;;;10.81;100.00;99403.69;182494;1234;46136;-83
2024/03/03 00:57:54;;;;;;;37.30;25.30;;;;;;;10.79;100.00;99399.98;182132;1240;46083;-84
2024/03/03 01:01:56;;;;;;;38.00;26.30;;;;;;;10.72;100.00;99400.66;182613;1235;46005;-83
2024/03/03 01:05:58;;;;;;;35.40;28.10;;;;;;;10.67;100.00;99397.44;182321;1239;59117;-84
2024/03/03 01:09:59;;;;;;;38.20;29.30;;;;;;;10.63;100.00;99388.28;182609;1238;45967;-84
2024/03/03 01:14:01;;;;;;;33.00;27.50;;;;;;;10.59;100.00;99383.61;183094;1234;46092;-81
2024/03/03 01:18:03;;;;;;;38.30;28.70;;;;;;;10.54;100.00;99384.79;183146;1235;46090;-83
2024/03/03 01:22:05;;;;;;;43.10;27.70;;;;;;;10.38;100.00;99383.34;183506;1235;45890;-83
2024/03/03 01:26:07;;;;;;;40.80;27.60;;;;;;;10.38;100.00;99384.91;182652;1234;59342;-82
2024/03/03 01:30:10;;;;;;;37.70;28.90;;;;;;;10.39;100.00;99381.02;183823;1235;45988;-82
2024/03/03 01:34:11;;;;;;;37.60;28.20;;;;;;;10.42;100.00;99377.83;183203;1235;45996;-84
2024/03/03 01:38:13;;;;;;;41.30;28.30;;;;;;;10.42;100.00;99371.96;183024;1235;46075;-85
2024/03/03 01:42:15;;;;;;;37.40;28.20;;;;;;;10.40;100.00;99370.39;182633;1238;45375;-85
2024/03/03 01:46:17;;;;;;;35.00;25.70;;;;;;;10.33;100.00;99366.02;182235;1236;58422;-85
2024/03/03 01:50:20;;;;;;;40.60;29.50;;;;;;;10.28;100.00;99368.83;182917;1235;46067;-85
2024/03/03 01:54:21;;;;;;;36.60;25.90;;;;;;;10.21;100.00;99363.64;182772;1235;46052;-84
2024/03/03 01:58:24;;;;;;;30.20;25.20;;;;;;;10.18;100.00;99357.02;182231;1238;46033;-84
2024/03/03 02:02:29;;;;;;;35.90;23.60;;;;;;;10.19;100.00;99356.09;182194;1235;45950;-85
2024/03/03 02:06:33;;;;;;;34.00;27.60;;;;;;;10.12;100.00;99351.67;182453;1235;57278;-85
2024/03/03 02:10:37;;;;;;;36.50;27.90;;;;;;;10.07;100.00;99345.63;182655;1235;46082;-85
2024/03/03 02:14:39;;;;;;;35.10;26.40;;;;;;;10.03;100.00;99338.81;182391;1234;45992;-85
2024/03/03 02:18:40;;;;;;;39.60;27.80;;;;;;;10.01;100.00;99331.71;182953;1235;45995;-82
2024/03/03 02:22:42;;;;;;;38.80;28.30;;;;;;;9.99;100.00;99332.23;182628;1235;46068;-85
2024/03/03 02:26:45;;;;;;;36.10;26.00;;;;;;;9.97;100.00;99330.98;182834;1235;58301;-83
2024/03/03 02:30:46;;;;;;;36.30;27.00;;;;;;;9.94;100.00;99329.31;182552;1238;46213;-85
2024/03/03 02:34:48;;;;;;;35.70;24.80;;;;;;;9.90;100.00;99326.00;182804;1237;45970;-83
2024/03/03 02:38:50;;;;;;;40.30;29.10;;;;;;;9.82;100.00;99329.19;183552;1235;45141;-83
2024/03/03 02:42:52;;;;;;;45.60;32.30;;;;;;;9.70;100.00;99325.33;182961;1235;46202;-83
2024/03/03 02:46:54;;;;;;;48.40;33.60;;;;;;;9.60;100.00;99324.65;183618;1235;58454;-85
2024/03/03 02:50:56;;;;;;;45.30;34.80;;;;;;;9.53;100.00;99323.36;182360;1235;46168;-84
2024/03/03 02:54:58;;;;;;;52.00;34.00;;;;;;;9.43;100.00;99324.98;182811;1235;46093;-84
2024/03/03 02:59:00;;;;;;;44.80;31.40;;;;;;;9.33;100.00;99326.81;182851;1235;45976;-85
2024/03/03 03:03:02;;;;;;;41.10;30.20;;;;;;;9.27;100.00;99326.45;182317;1238;46075;-84
2024/03/03 03:07:04;;;;;;;47.60;32.70;;;;;;;9.25;100.00;99321.83;182465;1235;59573;-84
2024/03/03 03:11:06;;;;;;;43.40;32.70;;;;;;;9.23;100.00;99319.56;182298;1235;46090;-84
2024/03/03 03:15:09;;;;;;;55.00;35.30;;;;;;;9.17;100.00;99317.63;182269;1235;45981;-84
2024/03/03 03:19:10;;;;;;;51.00;35.60;;;;;;;9.05;100.00;99323.54;182838;1235;46008;-85
2024/03/03 03:23:12;;;;;;;47.90;33.90;;;;;;;8.97;100.00;99323.65;183032;1234;46066;-82
2024/03/03 03:27:14;;;;;;;49.50;36.20;;;;;;;8.97;100.00;99325.61;182789;1238;56956;-83
2024/03/03 03:31:16;;;;;;;57.20;37.10;;;;;;;8.98;100.00;99320.55;183012;1234;46110;-83
2024/03/03 03:35:18;;;;;;;60.10;38.60;;;;;;;9.02;100.00;99320.44;183093;1234;46155;-85
2024/03/03 03:39:20;;;;;;;53.60;37.90;;;;;;;9.04;100.00;99311.73;182577;1238;46121;-84
2024/03/03 03:43:21;;;;;;;56.30;39.00;;;;;;;9.04;100.00;99312.80;182775;1234;45979;-85
2024/03/03 03:47:23;;;;;;;55.10;37.70;;;;;;;9.06;100.00;99311.42;182529;1238;57977;-85
2024/03/03 03:51:26;;;;;;;53.80;39.40;;;;;;;9.06;100.00;99309.77;182536;1238;46101;-84
2024/03/03 03:55:28;;;;;;;53.20;40.30;;;;;;;9.06;100.00;99313.16;182704;1235;45904;-85
2024/03/03 03:59:30;;;;;;;54.30;38.10;;;;;;;9.01;100.00;99307.42;183101;1235;46235;-85
2024/03/03 04:03:32;;;;;;;62.50;41.20;;;;;;;9.00;100.00;99303.64;182618;1238;46097;-84
2024/03/03 04:07:33;;;;;;;57.80;41.50;;;;;;;8.99;100.00;99311.29;182567;1235;59106;-84
2024/03/03 04:11:35;;;;;;;61.30;45.80;;;;;;;8.97;100.00;99312.16;182700;1234;46094;-83
2024/03/03 04:15:37;;;;;;;65.00;41.50;;;;;;;8.91;100.00;99309.94;183097;1234;44112;-85
2024/03/03 04:19:39;;;;;;;58.60;42.90;;;;;;;8.89;100.00;99304.83;182593;1238;46220;-84
2024/03/03 04:23:41;;;;;;;59.00;43.60;;;;;;;8.85;100.00;99296.99;183184;1236;45914;-83
2024/03/03 04:27:42;;;;;;;60.60;44.20;;;;;;;8.85;100.00;99294.87;182562;1234;58250;-85
2024/03/03 04:31:44;;;;;;;58.40;42.70;;;;;;;8.86;100.00;99294.60;182525;1238;46092;-85
2024/03/03 04:35:46;;;;;;;63.20;42.10;;;;;;;8.85;100.00;99292.02;182040;1234;46025;-83
2024/03/03 04:39:48;;;;;;;57.70;44.40;;;;;;;8.83;100.00;99289.36;182795;1235;46843;-85
2024/03/03 04:43:50;;;;;;;66.60;45.40;;;;;;;8.80;100.00;99289.98;182547;1235;46071;-84
2024/03/03 04:47:52;;;;;;;67.90;46.20;;;;;;;8.79;100.00;99292.77;182644;1235;58589;-85
2024/03/03 04:51:54;;;;;;;60.40;44.10;;;;;;;8.75;100.00;99288.69;183074;1235;46102;-85
2024/03/03 04:55:55;;;;;;;64.30;43.90;;;;;;;8.74;100.00;99291.25;182760;1236;45904;-84
2024/03/03 04:59:57;;;;;;;56.30;41.40;;;;;;;8.68;100.00;99283.11;183415;1235;44275;-85
2024/03/03 05:04:00;;;;;;;63.60;47.40;;;;;;;8.66;100.00;99280.80;182493;1235;46093;-85
2024/03/03 05:08:02;;;;;;;69.90;45.40;;;;;;;8.66;100.00;99286.29;182160;1234;59174;-84
2024/03/03 05:12:05;;;;;;;72.00;49.30;;;;;;;8.61;100.00;99286.95;182507;1238;46194;-84
2024/03/03 05:16:08;;;;;;;72.40;52.60;;;;;;;8.57;100.00;99291.21;182750;1235;44057;-85
2024/03/03 05:20:10;;;;;;;80.10;48.50;;;;;;;8.55;100.00;99299.30;182424;1236;45866;-85
2024/03/03 05:24:12;;;;;;;82.40;49.10;;;;;;;8.53;100.00;99300.89;182020;1235;45965;-85
2024/03/03 05:28:14;;;;;;;74.00;48.70;;;;;;;8.52;100.00;99300.98;182481;1238;58516;-84
2024/03/03 05:32:17;;;;;;;71.90;50.10;;;;;;;8.51;100.00;99307.30;182914;1235;46151;-85
2024/03/03 05:36:18;;;;;;;67.20;46.40;;;;;;;8.54;100.00;99312.64;182326;1235;46206;-84
2024/03/03 05:40:20;;;;;;;73.40;48.40;;;;;;;8.55;100.00;99306.25;182429;1235;45993;-84
2024/03/03 05:44:22;;;;;;;71.40;47.10;;;;;;;8.57;100.00;99303.76;182783;1237;46087;-85
2024/03/03 05:48:24;;;;;;;60.60;46.10;;;;;;;8.57;100.00;99298.64;182697;1235;57986;-84
2024/03/03 05:52:26;;;;;;;59.30;42.90;;;;;;;8.57;100.00;99302.81;182509;1234;45966;-84
2024/03/03 05:56:27;;;;;;;57.30;41.50;;;;;;;8.58;100.00;99301.73;182582;1238;44000;-84
2024/03/03 06:00:29;;;;;;;51.50;39.90;;;;;;;8.54;100.00;99298.48;182388;1235;45873;-84
2024/03/03 06:04:35;;;;;;;59.60;39.20;;;;;;;8.53;100.00;99298.60;182130;1236;46128;-85
2024/03/03 06:08:45;;;;;;;58.40;37.80;;;;;;;8.54;100.00;99303.42;182708;1238;58000;-84
2024/03/03 06:12:47;;;;;;;51.10;38.10;;;;;;;8.60;100.00;99303.80;182423;1235;46007;-85
2024/03/03 06:16:48;;;;;;;51.60;37.50;;;;;;;8.68;100.00;99310.35;182506;1236;45994;-85
2024/03/03 06:20:55;;;;;;;54.30;37.70;;;;;;;8.80;100.00;99310.90;182242;1235;46256;-86
2024/03/03 06:24:57;;;;;;;52.90;38.00;;;;;;;8.97;100.00;99310.81;182182;1235;45983;-85
2024/03/03 06:28:59;;;;;;;86.30;57.90;;;;;;;9.15;100.00;99316.20;183092;1235;59373;-85
2024/03/03 06:33:04;;;;;;;67.10;43.70;;;;;;;9.32;100.00;99321.77;182104;1234;46030;-84
2024/03/03 06:37:06;;;;;;;59.90;39.00;;;;;;;9.44;100.00;99319.10;182306;1238;46072;-84
2024/03/03 06:41:07;;;;;;;51.10;38.30;;;;;;;9.57;100.00;99318.95;183679;1235;45787;-85
2024/03/03 06:45:09;;;;;;;49.60;38.30;;;;;;;9.61;100.00;99320.23;183414;1238;44781;-84
2024/03/03 06:49:11;;;;;;;53.70;45.20;;;;;;;9.63;100.00;99319.51;182876;1238;56875;-82
2024/03/03 06:53:13;;;;;;;39.80;32.10;;;;;;;9.73;100.00;99320.42;182632;1235;46305;-84
2024/03/03 06:57:15;;;;;;;50.10;35.70;;;;;;;9.83;100.00;99311.17;182561;1235;46172;-85
2024/03/03 07:01:18;;;;;;;41.00;30.70;;;;;;;9.87;100.00;99316.67;182458;1235;46634;-84
2024/03/03 07:05:20;;;;;;;34.80;25.40;;;;;;;9.88;100.00;99314.88;182183;1235;46003;-86
2024/03/03 07:09:24;;;;;;;31.40;24.30;;;;;;;9.87;100.00;99313.34;182302;1238;57895;-85
2024/03/03 07:13:26;;;;;;;32.80;23.90;;;;;;;9.92;100.00;99321.77;182589;1238;46057;-85
2024/03/03 07:17:28;;;;;;;36.00;23.20;;;;;;;10.00;100.00;99322.55;182449;1235;46064;-84
2024/03/03 07:21:30;;;;;;;36.60;27.40;;;;;;;10.11;100.00;99319.88;182339;1238;45983;-84
2024/03/03 07:25:31;;;;;;;29.90;21.20;;;;;;;10.25;100.00;99328.71;182462;1235;46024;-83
2024/03/03 07:29:35;;;;;;;25.90;18.50;;;;;;;10.32;100.00;99327.33;182277;1238;58222;-85
2024/03/03 07:33:36;;;;;;;23.70;19.60;;;;;;;10.34;100.00;99326.65;182753;1236;46087;-85
2024/03/03 07:37:38;;;;;;;23.50;17.20;;;;;;;10.39;100.00;99326.69;182418;1235;46104;-84
2024/03/03 07:41:40;;;;;;;24.80;17.00;;;;;;;10.42;100.00;99326.77;182508;1235;45851;-84
2024/03/03 07:45:42;;;;;;;24.90;17.60;;;;;;;10.35;100.00;99328.46;182369;1235;46195;-84
2024/03/03 07:49:44;;;;;;;24.00;16.90;;;;;;;10.31;100.00;99327.48;182696;1235;57154;-83
2024/03/03 07:53:46;;;;;;;23.50;15.60;;;;;;;10.29;100.00;99332.58;182110;1237;46198;-83
2024/03/03 07:57:48;;;;;;;23.30;14.60;;;;;;;10.28;100.00;99334.80;182303;1234;46625;-85
2024/03/03 08:01:49;;;;;;;25.50;19.60;;;;;;;10.28;100.00;99335.66;182152;1235;45973;-84
2024/03/03 08:05:51;;;;;;;22.00;16.60;;;;;;;10.27;100.00;99331.90;182211;1235;45879;-86
2024/03/03 08:09:53;;;;;;;24.30;17.20;;;;;;;10.24;100.00;99329.93;182440;1234;58185;-86
2024/03/03 08:13:55;;;;;;;23.00;16.60;;;;;;;10.26;100.00;99324.87;182342;1235;46949;-85
2024/03/03 08:17:57;;;;;;;20.20;16.50;;;;;;;10.28;100.00;99322.04;183119;1234;44200;-86
2024/03/03 08:22:03;;;;;;;23.00;19.00;;;;;;;10.35;100.00;99322.63;182515;1235;46086;-85
2024/03/03 08:26:05;;;;;;;25.90;21.20;;;;;;;10.43;100.00;99324.93;182307;1236;46000;-86
2024/03/03 08:30:11;;;;;;;27.30;18.90;;;;;;;10.52;100.00;99319.31;183690;1235;59386;-87
2024/03/03 08:34:13;;;;;;;26.70;22.70;;;;;;;10.70;100.00;99312.92;183406;1234;45951;-88
2024/03/03 08:38:15;;;;;;;27.70;20.60;;;;;;;10.93;100.00;99308.55;184322;1235;45972;-83
2024/03/03 08:42:17;;;;;;;24.40;16.00;;;;;;;11.19;100.00;99312.40;183463;1235;45957;-83
2024/03/03 08:46:20;;;;;;;24.80;17.70;;;;;;;11.34;100.00;99306.42;182812;1235;45960;-84
2024/03/03 08:50:21;;;;;;;21.30;16.50;;;;;;;11.49;100.00;99306.91;183058;1236;57802;-83
2024/03/03 08:54:23;;;;;;;20.00;15.30;;;;;;;11.63;100.00;99305.84;182448;1235;44419;-83
2024/03/03 08:58:26;;;;;;;19.10;12.50;;;;;;;11.80;100.00;99305.56;182752;1235;46172;-84
2024/03/03 09:02:28;;;;;;;20.40;13.90;;;;;;;11.91;100.00;99303.89;183241;1235;45960;-83
2024/03/03 09:06:30;;;;;;;19.80;16.00;;;;;;;12.01;100.00;99303.56;185826;1236;44083;-84
2024/03/03 09:10:31;;;;;;;20.40;15.60;;;;;;;12.12;100.00;99295.36;183310;1238;58466;-83
2024/03/03 09:14:33;;;;;;;24.10;14.20;;;;;;;12.21;100.00;99295.67;182561;1236;44028;-81
2024/03/03 09:18:35;;;;;;;24.10;15.90;;;;;;;12.19;100.00;99300.59;184329;1235;44871;-84
2024/03/03 09:22:37;;;;;;;21.60;14.70;;;;;;;12.25;100.00;99301.80;183268;1235;46084;-84
2024/03/03 09:26:40;;;;;;;21.30;16.20;;;;;;;12.27;100.00;99308.71;183620;1236;45322;-84
2024/03/03 09:30:42;;;;;;;16.10;12.70;;;;;;;12.38;100.00;99296.21;183309;1236;56834;-85
2024/03/03 09:34:44;;;;;;;26.90;17.40;;;;;;;12.40;100.00;99301.75;183267;1235;45996;-84
2024/03/03 09:38:46;;;;;;;21.10;17.40;;;;;;;12.50;100.00;99290.08;183280;1234;46265;-81
2024/03/03 09:42:49;;;;;;;29.20;18.00;;;;;;;12.48;100.00;99292.89;182904;1235;46069;-82
2024/03/03 09:46:52;;;;;;;21.60;16.80;;;;;;;12.50;100.00;99294.98;183331;1236;44174;-84
2024/03/03 09:50:55;;;;;;;23.90;19.10;;;;;;;12.53;100.00;99297.50;182545;1238;59879;-83
2024/03/03 09:54:58;;;;;;;24.10;17.70;;;;;;;12.60;100.00;99299.41;182647;1238;46107;-84
2024/03/03 09:59:00;;;;;;;25.10;18.50;;;;;;;12.74;100.00;99297.27;182573;1234;46205;-84
2024/03/03 10:03:07;;;;;;;19.90;16.30;;;;;;;12.84;100.00;99298.66;182564;1235;46146;-84
2024/03/03 10:07:09;;;;;;;23.80;17.00;;;;;;;12.92;100.00;99306.77;182980;1236;45957;-84
2024/03/03 10:11:14;;;;;;;18.70;14.80;;;;;;;13.02;100.00;99295.40;182158;1236;58122;-83
2024/03/03 10:15:18;;;;;;;24.20;15.40;;;;;;;13.12;100.00;99292.53;182777;1238;46080;-85
2024/03/03 10:19:19;;;;;;;22.10;12.90;;;;;;;13.31;100.00;99290.66;183382;1235;46165;-82
2024/03/03 10:23:22;;;;;;;23.80;15.80;;;;;;;13.42;100.00;99283.22;182914;1234;46178;-84
2024/03/03 10:27:24;;;;;;;23.80;15.80;;;;;;;13.71;100.00;99287.56;183510;1235;45960;-82
2024/03/03 10:31:29;;;;;;;21.50;15.80;;;;;;;13.93;100.00;99286.09;183979;1235;58109;-83
2024/03/03 10:35:31;;;;;;;23.70;15.50;;;;;;;14.26;100.00;99277.54;183540;1235;46115;-83
2024/03/03 10:39:38;;;;;;;17.60;12.60;;;;;;;14.57;98.18;99280.08;183983;1238;46191;-83
2024/03/03 10:43:40;;;;;;;19.50;14.50;;;;;;;14.70;95.65;99272.34;184180;1238;44371;-84
2024/03/03 10:47:42;;;;;;;36.10;14.00;;;;;;;14.77;94.48;99266.02;183317;1238;46074;-84
2024/03/03 10:51:47;;;;;;;17.50;12.80;;;;;;;14.85;94.82;99264.56;183040;1238;59975;-84
2024/03/03 10:55:49;;;;;;;20.20;13.70;;;;;;;15.00;95.59;99264.39;183276;1236;44710;-84
2024/03/03 10:59:53;;;;;;;18.90;13.80;;;;;;;15.12;94.37;99266.42;185124;1237;45930;-83
2024/03/03 11:03:55;;;;;;;20.00;13.50;;;;;;;15.11;91.60;99261.48;183514;1235;46032;-81
2024/03/03 11:07:57;;;;;;;15.70;11.50;;;;;;;15.07;90.74;99262.21;183364;1236;45976;-84
2024/03/03 11:12:05;;;;;;;21.20;12.80;;;;;;;14.93;90.65;99259.58;183091;1235;59767;-80
2024/03/03 11:16:07;;;;;;;19.40;12.50;;;;;;;14.86;90.90;99255.09;183677;1235;46082;-84
2024/03/03 11:20:16;;;;;;;15.60;12.50;;;;;;;14.93;90.58;99248.91;184107;1234;46085;-84
2024/03/03 11:24:40;;;;;;;12.10;10.30;;;;;;;15.03;90.53;99242.79;184151;1234;44129;-83
2024/03/03 11:28:47;;;;;;;15.00;10.80;;;;;;;15.13;90.98;99234.37;182978;1238;205688;-85
2024/03/03 11:32:50;;;;;;;24.60;15.70;;;;;;;15.28;91.78;99231.35;183939;1236;58115;-84
2024/03/03 11:36:53;;;;;;;14.30;11.50;;;;;;;15.39;90.11;99217.77;183521;1235;45970;-85
2024/03/03 11:40:55;;;;;;;15.80;11.20;;;;;;;15.46;90.51;99221.39;184275;1237;46001;-84
2024/03/03 11:44:57;;;;;;;18.70;12.00;;;;;;;15.60;89.22;99215.85;183695;1238;46096;-83
2024/03/03 11:48:59;;;;;;;15.40;9.20;;;;;;;15.70;86.53;99220.33;184083;1235;43929;-81
2024/03/03 11:53:01;;;;;;;12.20;9.90;;;;;;;15.68;85.88;99224.54;183275;1238;58983;-84
2024/03/03 11:57:05;;;;;;;14.20;9.90;;;;;;;15.57;86.28;99220.48;184023;1235;45130;-80
2024/03/03 12:01:21;;;;;;;13.00;10.60;;;;;;;15.56;87.55;99212.34;184990;1235;44027;-85
2024/03/03 12:05:25;;;;;;;11.90;9.00;;;;;;;15.49;85.89;99205.89;184714;1235;44287;-83
2024/03/03 12:09:27;;;;;;;17.90;10.40;;;;;;;15.45;85.12;99207.15;183381;1238;46067;-84
2024/03/03 12:13:29;;;;;;;13.60;10.10;;;;;;;15.45;86.86;99203.35;183302;1236;57922;-85
2024/03/03 12:17:31;;;;;;;12.70;9.50;;;;;;;15.39;84.44;99197.99;183880;1238;46119;-84
2024/03/03 12:21:33;;;;;;;14.60;10.90;;;;;;;15.34;86.35;99196.44;183480;1235;46044;-84
2024/03/03 12:25:35;;;;;;;14.60;10.70;;;;;;;15.34;86.74;99191.21;183847;1235;45890;-83
2024/03/03 12:29:38;;;;;;;16.20;11.80;;;;;;;15.34;85.23;99197.48;183221;1235;44064;-85
2024/03/03 12:33:42;;;;;;;16.10;9.80;;;;;;;15.32;86.14;99196.50;183012;1238;57814;-84
2024/03/03 12:37:44;;;;;;;15.20;10.30;;;;;;;15.29;86.14;99197.02;184698;1235;45887;-84
2024/03/03 12:41:46;;;;;;;13.50;10.80;;;;;;;15.22;86.17;99191.98;183592;1235;44424;-83
2024/03/03 12:45:48;;;;;;;14.70;11.40;;;;;;;15.30;86.99;99186.16;183377;1235;46125;-83
2024/03/03 12:49:50;;;;;;;14.10;10.00;;;;;;;15.40;88.82;99181.77;182975;1235;46209;-84
2024/03/03 12:53:53;;;;;;;11.50;10.10;;;;;;;15.43;86.61;99178.60;183342;1238;57933;-84
2024/03/03 12:57:56;;;;;;;20.20;10.70;;;;;;;15.32;86.20;99183.80;183242;1234;45977;-84
2024/03/03 13:02:00;;;;;;;14.70;10.90;;;;;;;15.25;86.91;99176.86;182982;1235;45934;-80
2024/03/03 13:06:02;;;;;;;15.90;11.90;;;;;;;15.23;88.17;99175.02;183261;1235;46002;-83
2024/03/03 13:10:21;;;;;;;15.70;11.00;;;;;;;15.21;89.91;99177.41;183995;1238;45152;-84
2024/03/03 13:14:24;;;;;;;12.70;9.70;;;;;;;15.26;88.82;99169.34;184453;1234;57802;-86
2024/03/03 13:18:26;;;;;;;20.50;11.40;;;;;;;15.25;88.21;99165.62;183458;1235;44058;-86
2024/03/03 13:22:27;;;;;;;16.40;11.50;;;;;;;15.31;89.15;99163.17;183664;1238;46116;-85
2024/03/03 13:37:03;;;;;;;13.80;10.10;;;;;;;15.43;87.32;99153.19;182758;1234;60686;-83
2024/03/03 13:41:06;;;;;;;10.90;9.40;;;;;;;15.48;86.75;99155.11;182496;1235;46122;-83
2024/03/03 13:45:08;;;;;;;14.80;10.70;;;;;;;15.51;86.97;99146.04;182633;1234;45985;-83
2024/03/03 13:49:13;;;;;;;11.90;10.10;;;;;;;15.53;86.60;99138.45;182457;1234;46069;-83
2024/03/03 13:53:16;;;;;;;16.50;9.30;;;;;;;15.54;86.72;99142.42;182746;1237;46062;-83
2024/03/03 13:57:19;;;;;;;12.90;11.00;;;;;;;15.59;87.00;99138.03;183036;1234;59230;-83
2024/03/03 14:01:21;;;;;;;13.20;8.80;;;;;;;15.62;86.18;99140.76;182810;1233;46090;-85
2024/03/03 14:05:25;;;;;;;13.10;9.50;;;;;;;15.61;85.51;99143.34;182799;1233;46071;-82
2024/03/03 14:09:26;;;;;;;18.80;11.00;;;;;;;15.62;85.85;99145.04;183132;1235;46090;-82
2024/03/03 14:13:28;;;;;;;16.40;11.80;;;;;;;15.58;86.95;99140.61;182706;1233;45979;-82
2024/03/03 14:17:30;;;;;;;14.00;10.30;;;;;;;15.54;86.03;99141.11;182464;1237;58340;-82
2024/03/03 14:21:32;;;;;;;17.10;10.60;;;;;;;15.58;87.68;99138.52;182782;1233;46033;-81
2024/03/03 14:25:34;;;;;;;11.80;9.30;;;;;;;15.60;88.83;99137.95;182228;1234;46019;-81
2024/03/03 14:29:36;;;;;;;10.50;8.90;;;;;;;15.54;88.95;99132.06;182338;1237;46071;-81
2024/03/03 14:33:38;;;;;;;12.40;10.20;;;;;;;15.49;88.48;99129.23;182368;1233;46071;-81
2024/03/03 14:37:40;;;;;;;16.90;9.30;;;;;;;15.41;88.23;99130.95;182018;1237;58374;-83
2024/03/03 14:41:41;;;;;;;15.90;10.00;;;;;;;15.39;88.51;99129.94;182868;1234;43960;-82
2024/03/03 14:45:43;;;;;;;16.50;8.70;;;;;;;15.38;89.16;99130.92;183093;1235;46148;-82
2024/03/03 14:49:45;;;;;;;13.40;9.50;;;;;;;15.33;88.13;99133.65;181969;1235;45966;-84
2024/03/03 14:53:47;;;;;;;13.70;10.00;;;;;;;15.30;87.86;99131.50;182624;1237;46129;-83
2024/03/03 14:57:49;;;;;;;12.90;10.90;;;;;;;15.32;88.56;99124.98;182810;1233;59281;-82
2024/03/03 15:01:51;;;;;;;13.90;10.40;;;;;;;15.32;88.54;99126.34;183450;1235;44058;-83
2024/03/03 15:05:53;;;;;;;19.20;13.20;;;;;;;15.32;88.50;99124.55;182555;1233;45958;-83
2024/03/03 15:09:58;;;;;;;19.40;13.10;;;;;;;15.27;87.95;99123.11;182626;1234;46097;-83
2024/03/03 15:14:01;;;;;;;11.20;9.40;;;;;;;15.25;88.91;99124.39;182633;1234;46116;-83
2024/03/03 15:18:03;;;;;;;15.40;10.30;;;;;;;15.23;88.49;99123.25;183050;1235;58225;-83
2024/03/03 15:22:05;;;;;;;16.00;10.80;;;;;;;15.21;87.94;99121.00;182510;1233;46091;-83
2024/03/03 15:26:07;;;;;;;13.70;9.20;;;;;;;15.17;88.02;99115.34;182779;1237;46158;-83
2024/03/03 15:30:09;;;;;;;12.60;10.70;;;;;;;15.15;88.58;99112.42;182760;1234;46094;-83
2024/03/03 15:34:11;;;;;;;13.40;9.90;;;;;;;15.13;88.18;99110.33;182506;1234;45928;-83
2024/03/03 15:38:13;;;;;;;9.70;8.10;;;;;;;15.11;88.74;99111.49;182618;1234;59913;-83
2024/03/03 15:42:15;;;;;;;14.00;10.90;;;;;;;15.04;88.65;99110.99;182600;1237;46056;-83
2024/03/03 15:46:17;;;;;;;12.10;7.60;;;;;;;15.02;89.01;99107.34;182773;1233;46180;-83
2024/03/03 15:50:20;;;;;;;14.90;9.60;;;;;;;14.97;88.62;99103.81;182591;1234;46100;-83
2024/03/03 15:54:22;;;;;;;12.20;9.30;;;;;;;14.98;89.78;99108.98;182425;1236;46669;-83
2024/03/03 15:58:24;;;;;;;14.10;8.00;;;;;;;14.92;90.20;99106.29;182414;1235;59446;-82
2024/03/03 16:02:26;;;;;;;14.30;9.50;;;;;;;14.90;90.21;99106.91;182373;1234;46028;-83
2024/03/03 16:06:27;;;;;;;13.30;9.60;;;;;;;14.88;90.46;99101.73;183165;1237;46177;-83
2024/03/03 16:10:29;;;;;;;15.60;11.20;;;;;;;14.82;91.20;99108.58;182437;1237;46037;-82
2024/03/03 16:14:32;;;;;;;14.00;8.80;;;;;;;14.76;91.89;99108.81;182099;1233;45965;-81
2024/03/03 16:18:34;;;;;;;13.20;9.30;;;;;;;14.68;92.23;99112.37;182142;1234;59276;-82
2024/03/03 16:22:36;;;;;;;11.40;9.10;;;;;;;14.62;92.49;99112.55;182869;1233;46196;-82
2024/03/03 16:26:38;;;;;;;15.70;10.10;;;;;;;14.52;92.84;99113.46;181648;1233;46021;-82
2024/03/03 16:30:40;;;;;;;14.60;10.40;;;;;;;14.42;93.15;99115.16;181924;1234;46079;-81
2024/03/03 16:34:42;;;;;;;19.60;11.20;;;;;;;14.37;93.71;99116.51;181916;1234;45790;-81
2024/03/03 16:38:43;;;;;;;12.20;9.20;;;;;;;14.31;94.21;99118.23;182074;1234;57989;-82
2024/03/03 16:43:01;;;;;;;17.60;10.10;;;;;;;14.21;94.71;99120.80;182912;1233;46437;-82
2024/03/03 16:47:04;;;;;;;16.10;12.20;;;;;;;14.17;94.62;99124.51;182947;1234;46292;-82
2024/03/03 16:51:06;;;;;;;24.00;16.60;;;;;;;14.12;95.08;99120.59;183058;1233;45953;-82
2024/03/03 16:55:08;;;;;;;16.30;12.10;;;;;;;14.08;95.41;99121.59;182632;1234;46085;-82
2024/03/03 16:59:11;;;;;;;21.90;12.50;;;;;;;14.03;95.95;99124.13;182957;1234;58154;-82
2024/03/03 17:03:13;;;;;;;68.80;34.70;;;;;;;13.97;95.94;99124.44;181834;1235;45974;-82
2024/03/03 17:07:15;;;;;;;96.20;51.10;;;;;;;13.93;95.97;99124.09;181639;1238;46087;-82
2024/03/03 17:11:17;;;;;;;67.30;37.30;;;;;;;13.85;96.53;99127.75;182337;1236;46187;-82
2024/03/03 17:15:19;;;;;;;49.40;31.50;;;;;;;13.79;96.86;99129.55;182570;1233;46100;-82
2024/03/03 17:19:21;;;;;;;24.60;16.40;;;;;;;13.75;97.15;99132.71;183225;1233;58660;-82
2024/03/03 17:23:26;;;;;;;26.10;14.60;;;;;;;13.72;97.34;99135.25;182001;1233;46008;-82
2024/03/03 17:27:27;;;;;;;17.00;13.00;;;;;;;13.67;97.47;99134.83;182894;1237;46767;-82
2024/03/03 17:31:29;;;;;;;20.10;12.60;;;;;;;13.58;97.94;99141.80;182388;1234;46050;-82
2024/03/03 17:35:31;;;;;;;17.10;12.20;;;;;;;13.43;99.36;99145.69;182656;1233;46046;-82
2024/03/03 17:39:33;;;;;;;19.20;11.30;;;;;;;13.35;99.79;99142.59;183139;1233;59452;-83
2024/03/03 17:43:35;;;;;;;21.60;14.70;;;;;;;13.20;100.00;99149.77;182795;1237;45976;-83
2024/03/03 17:47:37;;;;;;;28.60;15.80;;;;;;;13.05;100.00;99151.12;182941;1234;46083;-83
2024/03/03 17:51:39;;;;;;;84.60;49.00;;;;;;;12.90;100.00;99157.91;182877;1237;46100;-82
2024/03/03 17:55:41;;;;;;;72.20;39.80;;;;;;;12.77;100.00;99158.52;182070;1235;45981;-82
2024/03/03 17:59:44;;;;;;;85.70;48.20;;;;;;;12.70;100.00;99159.66;182804;1234;59148;-82
2024/03/03 18:03:46;;;;;;;63.50;37.00;;;;;;;12.57;100.00;99161.27;182659;1234;44192;-83
2024/03/03 18:07:48;;;;;;;68.00;29.00;;;;;;;12.44;100.00;99157.29;182582;1237;46539;-82
2024/03/03 18:11:53;;;;;;;40.30;21.80;;;;;;;12.35;100.00;99157.55;183163;1235;46139;-83
2024/03/03 18:16:04;;;;;;;26.00;19.00;;;;;;;12.24;100.00;99157.14;182616;1234;46012;-83
2024/03/03 18:20:07;;;;;;;20.30;15.30;;;;;;;12.22;100.00;99153.64;182889;1234;58037;-83
2024/03/03 18:24:09;;;;;;;20.40;14.10;;;;;;;12.22;100.00;99148.61;182891;1237;46409;-82
2024/03/03 18:28:11;;;;;;;19.70;14.30;;;;;;;12.20;100.00;99153.84;183082;1237;45958;-82